createdAt,value
2019-01-03T00:00:15.285Z,9.20
2019-01-03T00:04:53.708Z,2.93
2019-01-03T00:07:29.166Z,5.70
2019-01-03T00:10:04.593Z,2.50
2019-01-03T00:12:39.974Z,2.37
2019-01-03T00:17:18.364Z,3.73
2019-01-03T00:19:53.853Z,2.05
2019-01-03T00:22:29.177Z,2.67
2019-01-03T00:25:04.612Z,4.20
2019-01-03T00:29:42.815Z,2.37
2019-01-03T00:32:28.193Z,4.55
2019-01-03T00:35:11.627Z,2.20
2019-01-03T00:37:47.008Z,2.63
2019-01-03T00:40:28.354Z,2.43
2019-01-03T00:43:10.599Z,3.53
2019-01-03T00:46:01.150Z,5.60
2019-01-03T00:48:38.749Z,2.50
2019-01-03T00:51:47.368Z,1.98
2019-01-03T00:54:22.785Z,8.17
2019-01-03T00:56:58.125Z,3.67
2019-01-03T00:59:34.577Z,4.33
2019-01-03T01:02:28.701Z,2.33
2019-01-03T01:05:04.045Z,1.97
2019-01-03T01:07:42.457Z,3.43
2019-01-03T01:10:21.689Z,4.40
2019-01-03T01:13:57.958Z,3.93
2019-01-03T01:16:33.694Z,1.33
2019-01-03T01:19:13.998Z,1.90
2019-01-03T01:21:49.513Z,4.10
2019-01-03T01:24:36.018Z,2.03
2019-01-03T01:28:10.402Z,3.27
2019-01-03T01:30:45.666Z,2.77
2019-01-03T01:33:55.637Z,2.93
2019-01-03T01:36:30.773Z,2.83
2019-01-03T01:39:06.624Z,2.60
2019-01-03T01:42:39.926Z,1.80
2019-01-03T01:45:32.574Z,3.27
2019-01-03T01:48:08.018Z,2.83
2019-01-03T01:50:45.408Z,4.27
2019-01-03T01:54:22.599Z,3.47
2019-01-03T01:56:58.044Z,4.97
2019-01-03T02:00:35.235Z,1.27
2019-01-03T02:03:10.781Z,3.40
2019-01-03T02:05:46.122Z,4.67
2019-01-03T02:08:21.437Z,2.77
2019-01-03T02:11:01.005Z,2.00
2019-01-03T02:13:43.514Z,4.50
2019-01-03T02:17:19.416Z,1.43
2019-01-03T02:20:53.496Z,2.33
2019-01-03T02:23:28.990Z,1.53
2019-01-03T02:26:04.281Z,1.17
2019-01-03T02:28:43.615Z,2.60
2019-01-03T02:32:22.855Z,1.67
2019-01-03T02:37:01.807Z,1.00
2019-01-03T02:39:54.338Z,2.50
2019-01-03T02:42:29.681Z,2.30
2019-01-03T02:45:36.972Z,2.37
2019-01-03T02:50:16.626Z,1.10
2019-01-03T02:53:54.022Z,2.47
2019-01-03T02:56:30.612Z,4.43
2019-01-03T02:59:12.900Z,3.02
2019-01-03T03:01:48.453Z,1.50
2019-01-03T03:04:23.890Z,3.33
2019-01-03T03:06:59.346Z,1.80
2019-01-03T03:09:39.691Z,3.63
2019-01-03T03:13:16.986Z,1.80
2019-01-03T03:15:52.433Z,1.95
2019-01-03T03:18:28.633Z,2.95
2019-01-03T03:21:07.011Z,1.43
2019-01-03T03:23:56.579Z,2.20
2019-01-03T03:26:31.309Z,1.77
2019-01-03T03:29:06.694Z,2.70
2019-01-03T03:33:50.913Z,1.85
2019-01-03T03:38:28.315Z,3.10
2019-01-03T03:41:18.300Z,2.23
2019-01-03T03:43:53.746Z,2.80
2019-01-03T03:48:34.016Z,1.17
2019-01-03T03:52:10.286Z,1.80
2019-01-03T03:54:45.759Z,1.83
2019-01-03T03:57:32.342Z,3.60
2019-01-03T04:00:07.545Z,2.20
2019-01-03T04:02:42.880Z,1.83
2019-01-03T04:05:52.560Z,2.37
2019-01-03T04:08:59.340Z,2.40
2019-01-03T04:11:37.753Z,1.57
2019-01-03T04:14:24.098Z,1.03
2019-01-03T04:17:15.777Z,2.10
2019-01-03T04:20:08.423Z,2.83
2019-01-03T04:22:42.875Z,3.13
2019-01-03T04:25:18.354Z,5.67
2019-01-03T04:27:53.880Z,5.33
2019-01-03T04:30:32.159Z,2.83
2019-01-03T04:33:07.502Z,1.70
2019-01-03T04:35:41.908Z,4.92
2019-01-03T04:38:28.104Z,5.07
2019-01-03T04:43:10.524Z,1.47
2019-01-03T04:47:49.770Z,2.60
2019-01-03T04:50:25.009Z,2.97
2019-01-03T04:53:00.357Z,4.20
2019-01-03T04:55:38.767Z,2.13
2019-01-03T04:58:16.215Z,2.73
2019-01-03T05:01:02.659Z,4.85
2019-01-03T05:03:38.102Z,3.37
2019-01-03T05:06:13.354Z,6.17
2019-01-03T05:08:55.647Z,2.30
2019-01-03T05:13:33.832Z,2.53
2019-01-03T05:16:09.256Z,1.83
2019-01-03T05:18:47.525Z,2.67
2019-01-03T05:21:23.070Z,2.57
2019-01-03T05:24:00.414Z,3.47
2019-01-03T05:26:35.685Z,2.43
2019-01-03T05:29:12.122Z,3.17
2019-01-03T05:31:47.526Z,1.87
2019-01-03T05:35:22.483Z,2.00
2019-01-03T05:38:03.626Z,2.47
2019-01-03T05:40:45.006Z,1.03
2019-01-03T05:43:20.323Z,2.03
2019-01-03T05:45:55.519Z,1.53
2019-01-03T05:48:39.325Z,4.77
2019-01-03T05:51:28.803Z,2.40
2019-01-03T05:55:07.015Z,2.73
2019-01-03T05:57:40.410Z,1.80
2019-01-03T06:00:15.751Z,4.55
2019-01-03T06:02:50.883Z,5.40
2019-01-03T06:05:26.309Z,3.00
2019-01-03T06:08:01.469Z,1.47
2019-01-03T06:12:39.900Z,2.30
2019-01-03T06:15:20.418Z,4.07
2019-01-03T06:18:10.958Z,1.97
2019-01-03T06:20:50.395Z,1.70
2019-01-03T06:23:31.983Z,2.50
2019-01-03T06:26:08.450Z,3.10
2019-01-03T06:29:43.432Z,3.93
2019-01-03T06:32:25.695Z,2.58
2019-01-03T06:35:08.103Z,2.60
2019-01-03T06:37:45.389Z,7.22
2019-01-03T06:40:23.905Z,2.42
2019-01-03T06:43:58.025Z,1.90
2019-01-03T06:46:33.612Z,1.37
2019-01-03T06:51:15.583Z,2.60
2019-01-03T06:53:51.072Z,5.40
2019-01-03T06:56:26.513Z,4.97
2019-01-03T06:59:01.969Z,4.05
2019-01-03T07:01:36.747Z,4.50
2019-01-03T07:04:19.873Z,4.17
2019-01-03T07:06:59.205Z,4.35
2019-01-03T07:09:35.746Z,3.70
2019-01-03T07:12:19.003Z,4.07
2019-01-03T07:14:54.417Z,4.60
2019-01-03T07:17:35.828Z,6.10
2019-01-03T07:22:17.066Z,3.35
2019-01-03T07:25:50.015Z,2.10
2019-01-03T07:28:25.505Z,4.28
2019-01-03T07:31:04.842Z,4.30
2019-01-03T07:35:45.573Z,8.45
2019-01-03T07:39:19.490Z,3.62
2019-01-03T07:42:56.687Z,7.80
2019-01-03T07:45:31.102Z,4.08
2019-01-03T07:48:15.410Z,4.45
2019-01-03T07:50:51.645Z,4.35
2019-01-03T07:53:30.073Z,5.17
2019-01-03T07:57:04.352Z,2.92
2019-01-03T07:59:41.873Z,3.70
2019-01-03T08:04:20.578Z,10.95
2019-01-03T08:07:54.536Z,7.12
2019-01-03T08:10:29.941Z,5.15
2019-01-03T08:14:02.930Z,6.67
2019-01-03T08:16:38.271Z,6.15
2019-01-03T08:19:15.658Z,7.42
2019-01-03T08:21:51.149Z,5.83
2019-01-03T08:24:29.357Z,5.90
2019-01-03T08:27:04.777Z,5.72
2019-01-03T08:30:42.769Z,6.72
2019-01-03T08:33:22.044Z,3.35
2019-01-03T08:36:58.168Z,3.40
2019-01-03T08:39:33.557Z,7.17
2019-01-03T08:42:09.017Z,6.47
2019-01-03T08:46:50.659Z,8.55
2019-01-03T08:50:01.002Z,6.27
2019-01-03T08:52:36.169Z,7.60
2019-01-03T08:55:15.614Z,4.73
2019-01-03T08:57:50.849Z,9.30
2019-01-03T09:00:26.029Z,4.80
2019-01-03T09:03:04.032Z,7.37
2019-01-03T09:06:09.423Z,9.93
2019-01-03T09:08:48.622Z,6.63
2019-01-03T09:11:59.529Z,5.13
2019-01-03T09:14:34.846Z,5.60
2019-01-03T09:19:14.734Z,7.93
2019-01-03T09:21:53.043Z,13.77
2019-01-03T09:24:29.409Z,8.23
2019-01-03T09:27:04.690Z,6.97
2019-01-03T09:30:11.939Z,6.20
2019-01-03T09:32:53.322Z,4.00
2019-01-03T09:35:28.766Z,6.17
2019-01-03T09:38:03.186Z,6.43
2019-01-03T09:41:09.658Z,10.53
2019-01-03T09:44:45.517Z,11.47
2019-01-03T09:47:15.741Z,4.83
2019-01-03T09:49:46.243Z,5.53
2019-01-03T09:52:15.992Z,17.03
2019-01-03T09:54:46.373Z,8.53
2019-01-03T09:57:16.757Z,4.63
2019-01-03T09:59:47.046Z,5.13
2019-01-03T10:02:17.399Z,7.17
2019-01-03T10:04:47.910Z,4.23
2019-01-03T10:07:18.306Z,6.00
2019-01-03T10:09:47.893Z,7.30
2019-01-03T10:12:18.146Z,5.37
2019-01-03T10:14:48.894Z,5.03
2019-01-03T10:17:19.353Z,8.03
2019-01-03T10:19:49.694Z,8.87
2019-01-03T10:22:20.117Z,8.03
2019-01-03T10:24:50.338Z,10.50
2019-01-03T10:27:20.761Z,9.07
2019-01-03T10:29:51.331Z,8.63
2019-01-03T10:32:21.640Z,8.13
2019-01-03T10:34:51.249Z,12.63
2019-01-03T10:37:21.603Z,11.50
2019-01-03T10:39:51.910Z,9.27
2019-01-03T10:42:22.297Z,9.00
2019-01-03T10:44:52.693Z,5.60
2019-01-03T10:47:23.030Z,7.43
2019-01-03T10:49:53.250Z,24.17
2019-01-03T10:52:23.554Z,16.47
2019-01-03T10:54:53.817Z,8.23
2019-01-03T10:57:24.092Z,8.90
2019-01-03T10:59:54.590Z,11.93
2019-01-03T11:02:25.055Z,7.33
2019-01-03T11:04:55.450Z,8.43
2019-01-03T11:07:25.846Z,12.37
2019-01-03T11:09:56.056Z,11.03
2019-01-03T11:12:26.446Z,10.93
2019-01-03T11:14:56.667Z,8.03
2019-01-03T11:17:26.961Z,10.57
2019-01-03T11:19:57.525Z,7.07
2019-01-03T11:22:27.952Z,7.43
2019-01-03T11:24:58.230Z,8.17
2019-01-03T11:27:28.556Z,8.70
2019-01-03T11:29:59.024Z,9.27
2019-01-03T11:32:29.345Z,15.13
2019-01-03T11:34:59.669Z,10.30
2019-01-03T11:37:30.049Z,6.97
2019-01-03T11:40:00.364Z,12.00
2019-01-03T11:42:30.747Z,11.70
2019-01-03T11:45:01.016Z,15.30
2019-01-03T11:47:31.426Z,8.47
2019-01-03T11:50:01.866Z,6.30
2019-01-03T11:52:32.310Z,14.57
2019-01-03T11:55:02.584Z,8.23
2019-01-03T11:57:32.990Z,4.37
2019-01-03T12:00:03.365Z,9.07
2019-01-03T12:02:33.849Z,5.63
2019-01-03T12:05:04.186Z,4.83
2019-01-03T12:07:34.806Z,4.70
2019-01-03T12:10:05.582Z,4.33
2019-01-03T12:12:35.935Z,4.10
2019-01-03T12:15:07.134Z,4.63
2019-01-03T12:17:37.533Z,5.97
2019-01-03T12:20:08.079Z,6.87
2019-01-03T12:22:38.385Z,6.37
2019-01-03T12:25:08.709Z,6.93
2019-01-03T12:27:39.037Z,6.83
2019-01-03T12:30:10.734Z,5.43
2019-01-03T12:32:41.074Z,7.93
2019-01-03T12:35:11.587Z,4.07
2019-01-03T12:37:42.230Z,8.33
2019-01-03T12:40:12.769Z,17.17
2019-01-03T12:42:43.086Z,14.03
2019-01-03T12:45:13.488Z,16.50
2019-01-03T12:47:43.820Z,15.03
2019-01-03T12:50:14.248Z,8.60
2019-01-03T12:52:44.790Z,7.40
2019-01-03T12:55:15.073Z,4.60
2019-01-03T12:57:45.363Z,8.73
2019-01-03T13:00:15.866Z,8.83
2019-01-03T13:02:46.169Z,9.37
2019-01-03T13:05:16.569Z,7.27
2019-01-03T13:07:46.879Z,5.40
2019-01-03T13:10:17.217Z,7.63
2019-01-03T13:12:47.506Z,8.93
2019-01-03T13:15:17.900Z,11.83
2019-01-03T13:17:48.438Z,8.40
2019-01-03T13:20:18.775Z,7.20
2019-01-03T13:22:49.101Z,13.90
2019-01-03T13:25:19.534Z,7.53
2019-01-03T13:27:49.881Z,17.70
2019-01-03T13:30:20.425Z,18.40
2019-01-03T13:32:50.870Z,8.30
2019-01-03T13:35:21.311Z,12.43
2019-01-03T13:37:51.649Z,7.77
2019-01-03T13:40:21.857Z,7.83
2019-01-03T13:42:52.245Z,5.67
2019-01-03T13:45:22.605Z,7.40
2019-01-03T13:47:53.060Z,7.77
2019-01-03T13:50:23.357Z,9.57
2019-01-03T13:52:53.736Z,7.13
2019-01-03T13:55:24.073Z,3.90
2019-01-03T13:57:54.519Z,7.57
2019-01-03T14:00:25.245Z,7.23
2019-01-03T14:02:55.584Z,8.80
2019-01-03T14:05:26.021Z,7.70
2019-01-03T14:07:56.352Z,9.20
2019-01-03T14:10:26.674Z,14.87
2019-01-03T14:12:57.250Z,10.37
2019-01-03T14:15:27.696Z,11.17
2019-01-03T14:17:58.169Z,10.40
2019-01-03T14:20:27.913Z,13.80
2019-01-03T14:22:58.140Z,12.30
2019-01-03T14:25:28.458Z,17.83
2019-01-03T14:27:58.857Z,10.03
2019-01-03T14:30:30.045Z,12.37
2019-01-03T14:33:00.822Z,8.60
2019-01-03T14:35:31.072Z,11.18
2019-01-03T14:38:01.791Z,20.30
2019-01-03T14:40:31.429Z,16.55
2019-01-03T14:43:01.690Z,19.35
2019-01-03T14:45:31.975Z,10.50
2019-01-03T14:48:02.267Z,11.68
2019-01-03T14:50:32.666Z,5.73
2019-01-03T14:53:03.314Z,12.80
2019-01-03T14:55:33.063Z,5.80
2019-01-03T14:58:03.313Z,18.80
2019-01-03T15:00:33.793Z,11.05
2019-01-03T15:03:04.317Z,11.20
2019-01-03T15:05:34.611Z,5.87
2019-01-03T15:08:04.952Z,6.87
2019-01-03T15:10:35.348Z,13.67
2019-01-03T15:13:05.814Z,14.40
2019-01-03T15:15:36.059Z,8.43
2019-01-03T15:18:06.454Z,7.87
2019-01-03T15:20:36.829Z,5.67
2019-01-03T15:23:07.245Z,4.95
2019-01-03T15:25:37.612Z,6.15
2019-01-03T15:28:08.095Z,9.20
2019-01-03T15:30:38.622Z,5.87
2019-01-03T15:33:08.946Z,6.45
2019-01-03T15:35:39.188Z,7.83
2019-01-03T15:38:09.607Z,6.85
2019-01-03T15:40:40.123Z,7.72
2019-01-03T15:43:10.436Z,10.50
2019-01-03T15:45:40.686Z,9.18
2019-01-03T15:48:11.711Z,7.65
2019-01-03T15:50:42.019Z,8.83
2019-01-03T15:53:12.358Z,9.70
2019-01-03T15:55:42.697Z,11.48
2019-01-03T15:58:13.005Z,9.00
2019-01-03T16:00:43.331Z,12.68
2019-01-03T16:03:13.719Z,11.43
2019-01-03T16:05:44.129Z,7.17
2019-01-03T16:08:14.361Z,8.05
2019-01-03T16:10:44.645Z,8.73
2019-01-03T16:13:15.085Z,8.63
2019-01-03T16:15:45.558Z,11.33
2019-01-03T16:18:15.870Z,7.10
2019-01-03T16:20:46.148Z,5.17
2019-01-03T16:23:16.655Z,7.25
2019-01-03T16:25:46.925Z,14.40
2019-01-03T16:28:17.240Z,10.50
2019-01-03T16:30:47.935Z,8.80
2019-01-03T16:33:18.236Z,30.30
2019-01-03T16:35:49.694Z,15.88
2019-01-03T16:38:19.325Z,50.90
2019-01-03T16:40:49.922Z,39.18
2019-01-03T16:43:20.238Z,23.20
2019-01-03T16:45:50.494Z,25.08
2019-01-03T16:48:20.906Z,11.90
2019-01-03T16:50:51.262Z,11.03
2019-01-03T16:53:21.529Z,13.03
2019-01-03T16:55:51.774Z,15.63
2019-01-03T16:58:22.219Z,8.10
2019-01-03T17:00:52.486Z,10.35
2019-01-03T17:03:22.853Z,11.12
2019-01-03T17:05:53.187Z,12.68
2019-01-03T17:08:23.483Z,8.78
2019-01-03T17:10:53.882Z,6.05
2019-01-03T17:13:24.341Z,7.75
2019-01-03T17:15:54.791Z,11.45
2019-01-03T17:18:25.177Z,7.05
2019-01-03T17:20:55.588Z,7.28
2019-01-03T17:23:25.969Z,5.47
2019-01-03T17:25:56.188Z,10.78
2019-01-03T17:28:26.578Z,6.28
2019-01-03T17:30:57.096Z,11.12
2019-01-03T17:33:27.560Z,5.50
2019-01-03T17:35:57.781Z,12.13
2019-01-03T17:38:28.485Z,7.67
2019-01-03T17:40:58.797Z,6.92
2019-01-03T17:43:29.246Z,7.75
2019-01-03T17:45:59.619Z,6.87
2019-01-03T17:48:29.998Z,9.83
2019-01-03T17:51:00.326Z,6.22
2019-01-03T17:53:30.928Z,8.35
2019-01-03T17:56:01.225Z,11.15
2019-01-03T17:58:31.597Z,12.88
2019-01-03T18:01:01.397Z,10.43
2019-01-03T18:03:32.737Z,12.98
2019-01-03T18:06:03.037Z,5.85
2019-01-03T18:08:33.411Z,8.28
2019-01-03T18:11:03.813Z,14.80
2019-01-03T18:13:34.466Z,10.78
2019-01-03T18:16:04.891Z,8.45
2019-01-03T18:18:36.796Z,6.08
2019-01-03T18:21:05.722Z,12.33
2019-01-03T18:23:36.134Z,13.58
2019-01-03T18:26:06.519Z,8.33
2019-01-03T18:28:36.848Z,11.78
2019-01-03T18:31:07.524Z,12.58
2019-01-03T18:33:37.987Z,7.58
2019-01-03T18:36:08.312Z,10.28
2019-01-03T18:38:38.656Z,12.65
2019-01-03T18:41:09.164Z,13.78
2019-01-03T18:43:39.618Z,11.88
2019-01-03T18:46:09.954Z,8.83
2019-01-03T18:48:40.436Z,10.03
2019-01-03T18:51:10.702Z,12.85
2019-01-03T18:53:41.009Z,6.47
2019-01-03T18:56:11.248Z,7.92
2019-01-03T18:58:41.551Z,10.25
2019-01-03T19:01:11.705Z,10.68
2019-01-03T19:03:42.418Z,8.03
2019-01-03T19:06:12.965Z,14.13
2019-01-03T19:08:43.465Z,10.50
2019-01-03T19:11:13.737Z,9.48
2019-01-03T19:13:44.082Z,9.95
2019-01-03T19:16:14.461Z,8.18
2019-01-03T19:18:44.785Z,14.20
2019-01-03T19:21:15.172Z,14.38
2019-01-03T19:23:45.589Z,4.87
2019-01-03T19:26:16.040Z,9.83
2019-01-03T19:28:46.469Z,10.25
2019-01-03T19:31:16.893Z,8.45
2019-01-03T19:33:47.161Z,12.55
2019-01-03T19:36:17.589Z,12.53
2019-01-03T19:38:47.978Z,8.65
2019-01-03T19:41:18.362Z,13.28
2019-01-03T19:43:48.726Z,12.33
2019-01-03T19:46:19.025Z,14.50
2019-01-03T19:48:49.473Z,12.23
2019-01-03T19:51:20.021Z,11.28
2019-01-03T19:53:50.703Z,11.03
2019-01-03T19:56:21.000Z,9.58
2019-01-03T19:58:51.378Z,13.50
2019-01-03T20:01:21.724Z,11.65
2019-01-03T20:03:52.138Z,10.43
2019-01-03T20:06:22.533Z,10.15
2019-01-03T20:08:52.825Z,13.20
2019-01-03T20:11:23.278Z,15.18
2019-01-03T20:13:53.738Z,15.28
2019-01-03T20:16:24.105Z,12.53
2019-01-03T20:18:54.524Z,9.48
2019-01-03T20:21:24.929Z,11.08
2019-01-03T20:23:55.344Z,9.53
2019-01-03T20:26:25.673Z,16.48
2019-01-03T20:28:55.983Z,11.50
2019-01-03T20:31:26.457Z,15.70
2019-01-03T20:33:56.941Z,17.60
2019-01-03T20:36:27.389Z,12.00
2019-01-03T20:38:57.798Z,22.32
2019-01-03T20:41:28.137Z,11.33
2019-01-03T20:43:58.597Z,12.20
2019-01-03T20:46:28.922Z,12.37
2019-01-03T20:48:58.716Z,10.20
2019-01-03T20:51:29.002Z,15.15
2019-01-03T20:53:59.592Z,16.30
2019-01-03T20:56:29.376Z,16.65
2019-01-03T20:58:59.666Z,15.78
2019-01-03T21:01:30.016Z,8.65
2019-01-03T21:04:00.519Z,11.05
2019-01-03T21:06:30.889Z,10.35
2019-01-03T21:09:01.346Z,12.50
2019-01-03T21:11:31.821Z,15.00
2019-01-03T21:14:02.122Z,8.73
2019-01-03T21:16:32.526Z,17.15
2019-01-03T21:19:02.917Z,10.38
2019-01-03T21:21:33.213Z,11.35
2019-01-03T21:24:03.658Z,15.48
2019-01-03T21:26:34.049Z,23.07
2019-01-03T21:29:04.483Z,28.50
2019-01-03T21:31:35.126Z,22.85
2019-01-03T21:34:05.742Z,14.28
2019-01-03T21:36:36.019Z,16.48
2019-01-03T21:39:06.861Z,25.25
2019-01-03T21:41:36.602Z,16.52
2019-01-03T21:44:06.954Z,22.65
2019-01-03T21:46:37.338Z,20.57
2019-01-03T21:49:07.886Z,14.15
2019-01-03T21:51:38.094Z,12.80
2019-01-03T21:54:08.574Z,18.30
2019-01-03T21:56:39.167Z,15.83
2019-01-03T21:59:09.697Z,18.40
2019-01-03T22:01:40.115Z,20.97
2019-01-03T22:04:10.469Z,12.13
2019-01-03T22:06:40.921Z,16.65
2019-01-03T22:09:11.234Z,11.68
2019-01-03T22:11:41.694Z,12.15
2019-01-03T22:16:37.460Z,18.00
2019-01-03T22:19:07.728Z,11.08
2019-01-03T22:21:38.069Z,14.75
2019-01-03T22:24:08.478Z,14.65
2019-01-03T22:26:38.857Z,16.77
2019-01-03T22:29:09.357Z,15.08
2019-01-03T22:31:39.746Z,13.58
2019-01-03T22:34:10.084Z,13.90
2019-01-03T22:36:40.565Z,12.73
2019-01-03T22:39:10.990Z,11.00
2019-01-03T22:41:41.589Z,11.18
2019-01-03T22:44:11.210Z,13.20
2019-01-03T22:46:41.617Z,11.15
2019-01-03T22:49:12.198Z,14.90
2019-01-03T22:51:42.712Z,12.15
2019-01-03T22:54:13.208Z,12.80
2019-01-03T22:56:43.773Z,9.70
2019-01-03T22:59:14.224Z,12.33
2019-01-03T23:01:44.786Z,6.95
2019-01-03T23:04:15.632Z,7.05
2019-01-03T23:06:46.100Z,9.60
2019-01-03T23:09:16.598Z,14.30
2019-01-03T23:11:46.384Z,12.63
2019-01-03T23:14:16.676Z,9.58
2019-01-03T23:16:47.213Z,11.83
2019-01-03T23:19:17.621Z,10.32
2019-01-03T23:21:47.893Z,10.28
2019-01-03T23:24:17.715Z,6.60
2019-01-03T23:26:48.008Z,5.50
2019-01-03T23:29:18.334Z,13.62
2019-01-03T23:31:48.851Z,8.38
2019-01-03T23:34:19.185Z,14.18
2019-01-03T23:36:49.633Z,8.55
2019-01-03T23:39:20.008Z,8.88
2019-01-03T23:41:50.318Z,12.20
2019-01-03T23:44:20.716Z,8.65
2019-01-03T23:46:51.142Z,9.55
2019-01-03T23:49:21.651Z,7.67
2019-01-03T23:51:52.228Z,9.20
2019-01-03T23:54:22.612Z,9.45
2019-01-03T23:56:53.193Z,10.45
2019-01-03T23:59:23.682Z,9.68
